Time;durP1;ratioP1;P1;durP2;ratioP2;P2;SDS_P1;SDS_P2;PMS_P1;PMS_P2;Temp;Humidity;BMP_temperature;BMP_pressure;BME280_temperature;BME280_humidity;BME280_pressure;Samples;Min_cycle;Max_cycle;Signal;HPM_P1;HPM_P2
2023/06/08 07:23:28;;;;;;;19.33;14.43;;;;;;;-145.79;57.32;77375.16;5320620;27;20392;-72
2023/06/08 07:25:59;;;;;;;21.50;15.70;;;;;;;-145.79;57.47;77385.75;5301319;28;20020;-72
2023/06/08 07:28:30;;;;;;;17.67;15.05;;;;;;;-145.79;57.58;77381.50;5300509;28;20040;-72
2023/06/08 07:31:02;;;;;;;18.25;14.43;;;;;;;-145.79;57.25;77368.78;5300945;28;20093;-71
2023/06/08 07:33:33;;;;;;;16.10;13.35;;;;;;;-145.79;57.16;77351.84;5300386;28;20024;-71
2023/06/08 07:36:04;;;;;;;13.98;11.77;;;;;;;-145.79;56.82;77330.66;5300115;28;20030;-72
2023/06/08 07:38:36;;;;;;;20.40;13.90;;;;;;;-145.79;56.87;77330.66;5300995;28;20036;-72
2023/06/08 07:41:07;;;;;;;19.15;14.63;;;;;;;-145.79;56.46;77326.41;5300649;28;20024;-72
2023/06/08 07:43:40;;;;;;;22.65;15.32;;;;;;;-145.79;56.72;77313.69;5299984;28;20016;-72
2023/06/08 07:46:12;;;;;;;17.88;13.48;;;;;;;-145.79;56.30;77288.25;5301094;28;20021;-72
2023/06/08 07:48:43;;;;;;;18.73;14.57;;;;;;;-145.79;56.23;77264.94;5295383;28;20067;-72
2023/06/08 07:51:15;;;;;;;20.35;13.32;;;;;;;-145.79;56.05;77254.34;5288694;28;20052;-72
2023/06/08 07:53:46;;;;;;;20.40;14.23;;;;;;;-145.79;55.89;77260.69;5300490;28;20024;-72
2023/06/08 07:56:18;;;;;;;22.40;14.98;;;;;;;-145.79;56.00;77252.22;5300229;28;20450;-73
2023/06/08 07:58:49;;;;;;;19.48;14.55;;;;;;;-145.79;55.75;77247.97;5299984;28;20127;-72
2023/06/08 08:01:20;;;;;;;18.80;14.35;;;;;;;-145.79;55.47;77233.16;5300524;28;20428;-71
2023/06/08 08:03:52;;;;;;;19.95;13.50;;;;;;;-145.79;54.71;77224.66;5299416;28;20030;-71
2023/06/08 08:06:23;;;;;;;20.58;14.23;;;;;;;-145.79;54.72;77201.34;5289571;28;20454;-71
2023/06/08 08:08:54;;;;;;;18.02;11.07;;;;;;;-145.79;55.99;77197.09;5285068;28;20017;-75
2023/06/08 08:11:27;;;;;;;13.52;10.15;;;;;;;-145.79;55.20;77173.78;5299245;28;20487;-70
2023/06/08 08:13:58;;;;;;;14.55;13.05;;;;;;;-145.79;54.27;77169.56;5298537;28;20021;-73
2023/06/08 08:16:29;;;;;;;18.70;15.15;;;;;;;-145.79;53.99;77156.84;5299823;28;20051;-72
2023/06/08 08:19:01;;;;;;;17.42;15.57;;;;;;;-145.79;53.98;77161.06;5298654;28;20024;-72
2023/06/08 08:21:32;;;;;;;19.95;14.93;;;;;;;-145.79;54.24;77161.06;5299952;28;20444;-72
2023/06/08 08:24:05;;;;;;;19.58;14.20;;;;;;;-145.79;53.77;77152.59;5295288;28;20030;-73
2023/06/08 08:26:40;;;;;;;16.00;13.82;;;;;;;-145.79;53.70;77139.88;5299100;28;20021;-72
2023/06/08 08:29:11;;;;;;;16.00;13.27;;;;;;;-145.79;53.54;77133.53;5298553;28;20024;-72
2023/06/08 08:31:43;;;;;;;20.02;14.73;;;;;;;-145.79;53.09;77118.69;5305167;28;20058;-72
2023/06/08 08:34:14;;;;;;;19.08;14.48;;;;;;;-145.79;52.90;77114.44;5310457;28;20046;-72
2023/06/08 08:36:45;;;;;;;16.33;12.02;;;;;;;-145.79;53.19;77095.38;5286518;28;20047;-72
2023/06/08 08:39:17;;;;;;;16.63;12.27;;;;;;;-145.79;53.17;77080.53;5271714;28;20361;-72
2023/06/08 08:41:53;;;;;;;21.02;13.73;;;;;;;-145.79;53.18;77067.81;5285036;28;20024;-71
2023/06/08 08:44:26;;;;;;;16.95;12.55;;;;;;;-145.79;52.67;77063.59;5273371;28;20108;-70
2023/06/08 08:47:02;;;;;;;16.60;13.50;;;;;;;-145.79;52.58;77069.94;5279903;28;20025;-71
2023/06/08 08:49:39;;;;;;;19.67;13.27;;;;;;;-145.79;52.35;77069.94;5282372;28;20467;-76
2023/06/08 08:52:11;;;;;;;13.80;11.65;;;;;;;-145.79;52.69;77055.09;5288286;28;20098;-75
2023/06/08 08:54:43;;;;;;;18.65;13.55;;;;;;;-145.79;52.51;77027.56;5282640;28;20467;-77
2023/06/08 08:57:15;;;;;;;19.48;13.98;;;;;;;-145.79;52.32;77021.19;5274070;28;20060;-75
2023/06/08 08:59:46;;;;;;;16.38;11.85;;;;;;;-145.79;51.80;77006.34;5284206;28;20056;-75
2023/06/08 09:02:17;;;;;;;18.10;14.98;;;;;;;-145.79;51.55;76991.53;5285053;28;20516;-75
2023/06/08 09:04:49;;;;;;;17.23;13.45;;;;;;;-145.79;51.74;76978.81;5283380;28;20033;-75
2023/06/08 09:07:24;;;;;;;13.52;12.18;;;;;;;-145.79;51.00;76980.94;5284352;28;20100;-76
2023/06/08 09:10:18;;;;;;;16.45;14.00;;;;;;;-145.79;51.19;76978.81;5282698;28;20021;-76
2023/06/08 09:12:51;;;;;;;16.67;12.82;;;;;;;-145.79;51.17;76966.09;5264128;28;20115;-74
2023/06/08 09:15:37;;;;;;;15.48;12.45;;;;;;;-145.79;51.25;76963.97;5263536;28;20027;-75
2023/06/08 09:18:17;;;;;;;14.20;11.63;;;;;;;-145.79;51.16;76957.59;5264299;28;20432;-74
2023/06/08 09:20:49;;;;;;;14.98;11.70;;;;;;;-145.79;51.20;76936.41;5267818;28;20108;-75
2023/06/08 09:23:24;;;;;;;13.00;11.40;;;;;;;-145.79;50.72;76930.06;5284549;28;20052;-76
2023/06/08 09:25:55;;;;;;;12.98;10.52;;;;;;;-145.79;50.03;76913.09;5275062;28;20031;-76
2023/06/08 09:28:28;;;;;;;14.52;11.18;;;;;;;-145.79;50.62;76900.38;5263444;28;20021;-75
2023/06/08 09:31:08;;;;;;;16.60;12.07;;;;;;;-145.79;50.22;76906.75;5271846;28;20475;-76
2023/06/08 09:33:41;;;;;;;13.70;10.88;;;;;;;-145.79;49.98;76894.03;5283020;28;20439;-76
2023/06/08 09:36:15;;;;;;;12.82;11.48;;;;;;;-145.79;49.95;76913.09;5266327;28;20024;-74
2023/06/08 09:38:55;;;;;;;14.83;10.83;;;;;;;-145.79;50.12;76885.56;5284439;28;20017;-76
2023/06/08 09:41:27;;;;;;;14.63;11.32;;;;;;;-145.79;49.84;76891.91;5286455;28;20467;-78
2023/06/08 09:43:59;;;;;;;12.90;10.48;;;;;;;-145.79;49.46;76879.19;5289943;28;20023;-77
2023/06/08 09:46:39;;;;;;;12.73;9.98;;;;;;;-145.79;49.40;76870.72;5283754;28;20089;-80
2023/06/08 09:49:13;;;;;;;12.23;10.23;;;;;;;-145.79;49.36;76858.00;5273041;28;20129;-76
2023/06/08 09:51:49;;;;;;;11.20;8.63;;;;;;;-145.79;49.18;76817.72;5283831;28;20107;-75
2023/06/08 09:54:20;;;;;;;12.52;9.38;;;;;;;-145.79;48.79;76798.66;5284107;28;20081;-75
2023/06/08 09:56:54;;;;;;;11.73;9.02;;;;;;;-145.79;48.35;76783.81;5274841;28;20466;-75
2023/06/08 09:59:31;;;;;;;14.55;11.80;;;;;;;-145.79;48.35;76805.00;5262254;28;20029;-76
2023/06/08 10:02:29;;;;;;;10.25;9.25;;;;;;;-145.79;48.36;76785.94;5262294;28;20052;-77
2023/06/08 10:05:08;;;;;;;10.13;9.13;;;;;;;-145.79;47.96;76754.16;5279633;28;20082;-76
2023/06/08 10:07:44;;;;;;;10.40;7.63;;;;;;;-145.79;47.52;76754.16;5282073;28;20103;-75
2023/06/08 10:10:24;;;;;;;10.57;8.80;;;;;;;-145.79;47.48;76749.91;5281476;28;20063;-76
2023/06/08 10:12:57;;;;;;;14.13;8.32;;;;;;;-145.79;47.52;76737.19;5279585;28;20090;-76
2023/06/08 10:15:29;;;;;;;9.93;7.72;;;;;;;-145.79;47.12;76735.06;5282253;28;20020;-76
2023/06/08 10:18:02;;;;;;;9.68;8.77;;;;;;;-145.79;46.88;76730.84;5281138;28;20024;-76
2023/06/08 10:20:35;;;;;;;12.25;11.05;;;;;;;-145.79;46.75;76711.75;5282401;28;20033;-75
2023/06/08 10:23:08;;;;;;;16.33;14.73;;;;;;;-145.79;46.94;76696.94;5275141;28;20352;-75
2023/06/08 10:25:41;;;;;;;7.80;7.03;;;;;;;-145.79;46.24;76701.16;5281566;28;20475;-74
2023/06/08 10:28:20;;;;;;;7.75;6.80;;;;;;;-145.79;45.67;76679.97;5273579;28;20028;-74
2023/06/08 10:30:51;;;;;;;9.52;6.25;;;;;;;-145.79;45.25;76665.16;5261640;28;20039;-76
2023/06/08 10:33:31;;;;;;;9.15;5.75;;;;;;;-145.79;44.89;76648.19;5274412;28;20020;-75
2023/06/08 10:36:03;;;;;;;6.57;5.53;;;;;;;-145.79;44.75;76658.78;5281980;28;20463;-75
2023/06/08 10:38:54;;;;;;;5.75;5.10;;;;;;;-145.79;44.16;76646.06;5280044;28;20078;-75
2023/06/08 10:41:41;;;;;;;7.43;6.72;;;;;;;-145.79;44.44;76652.44;5270489;28;20033;-74
2023/06/08 10:44:36;;;;;;;7.63;5.38;;;;;;;-145.79;44.51;76635.47;5270305;28;20043;-75
2023/06/08 10:47:09;;;;;;;9.88;5.85;;;;;;;-145.79;44.04;76622.75;5279337;28;20040;-75
2023/06/08 10:49:44;;;;;;;8.68;6.57;;;;;;;-145.79;44.40;76614.28;5281980;28;20027;-75
2023/06/08 10:52:21;;;;;;;12.57;6.80;;;;;;;-145.79;44.33;76588.84;5280450;28;20076;-75
2023/06/08 10:55:08;;;;;;;10.07;7.68;;;;;;;-145.79;44.55;76588.84;5281450;28;20107;-75
2023/06/08 10:57:42;;;;;;;8.57;6.13;;;;;;;-145.79;43.89;76599.44;5279940;28;20009;-76
2023/06/08 11:00:30;;;;;;;7.60;6.20;;;;;;;-145.79;44.09;76567.66;5265113;28;20031;-76
2023/06/08 11:03:05;;;;;;;6.80;6.03;;;;;;;-145.79;43.81;76580.38;5280512;28;20033;-76
2023/06/08 11:05:38;;;;;;;8.83;5.50;;;;;;;-145.79;43.59;76554.94;5280419;28;20024;-76
2023/06/08 11:08:10;;;;;;;7.93;5.75;;;;;;;-145.79;43.67;76565.53;5263945;28;20366;-74
2023/06/08 11:10:43;;;;;;;9.48;8.02;;;;;;;-145.79;43.26;76565.53;5270973;28;20048;-76
2023/06/08 11:13:16;;;;;;;12.68;9.52;;;;;;;-145.79;43.60;76576.13;5271590;28;20087;-75
2023/06/08 11:15:47;;;;;;;10.18;7.25;;;;;;;-145.79;43.26;76554.94;5260469;28;20035;-76
2023/06/08 11:18:20;;;;;;;10.55;6.75;;;;;;;-145.79;43.29;76574.00;5260601;28;20033;-75
2023/06/08 11:20:59;;;;;;;10.25;7.28;;;;;;;-145.79;43.69;76569.78;5277368;28;20048;-76
2023/06/08 11:23:33;;;;;;;8.57;7.03;;;;;;;-145.79;42.98;76571.91;5280895;28;20097;-74
2023/06/08 11:26:04;;;;;;;6.82;6.10;;;;;;;-145.79;43.31;76546.47;5279646;28;20029;-75
2023/06/08 11:28:36;;;;;;;8.75;6.00;;;;;;;-145.79;42.76;76546.47;5268868;28;20021;-75
2023/06/08 11:31:09;;;;;;;7.60;6.80;;;;;;;-145.79;42.66;76552.81;5277354;28;20040;-75
2023/06/08 11:33:47;;;;;;;8.30;6.45;;;;;;;-145.79;43.08;76550.69;5281209;28;20116;-75
2023/06/08 11:36:18;;;;;;;6.63;6.03;;;;;;;-145.79;42.73;76538.00;5280101;28;20053;-74
2023/06/08 11:38:50;;;;;;;7.47;5.90;;;;;;;-145.79;42.83;76510.44;5281109;28;20056;-75
2023/06/08 11:41:22;;;;;;;11.02;6.68;;;;;;;-145.79;42.44;76504.09;5280814;28;20026;-75
2023/06/08 11:43:56;;;;;;;7.72;6.20;;;;;;;-145.79;42.28;76489.25;5280319;28;20036;-76
2023/06/08 11:46:28;;;;;;;12.05;10.73;;;;;;;-145.79;42.20;76487.13;5278179;28;20121;-76
2023/06/08 11:49:12;;;;;;;10.20;8.25;;;;;;;-145.79;42.20;76470.19;5277501;28;20107;-76
2023/06/08 11:51:46;;;;;;;14.00;9.52;;;;;;;-145.79;42.05;76463.81;5281179;28;20070;-75
2023/06/08 11:54:21;;;;;;;10.57;7.78;;;;;;;-145.79;42.01;76453.22;5281122;28;20103;-75
2023/06/08 11:56:55;;;;;;;8.10;6.38;;;;;;;-145.79;42.18;76417.19;5280409;28;20020;-75
2023/06/08 11:59:26;;;;;;;7.32;5.47;;;;;;;-145.79;41.24;76436.28;5281037;28;20036;-74
2023/06/08 12:01:59;;;;;;;10.45;6.75;;;;;;;-145.79;40.79;76423.56;5279710;28;20395;-74
2023/06/08 12:04:39;;;;;;;10.93;6.45;;;;;;;-145.79;40.56;76402.38;5274817;28;20045;-75
2023/06/08 12:07:14;;;;;;;6.75;5.55;;;;;;;-145.79;40.50;76387.53;5279292;28;20514;-74
2023/06/08 12:09:49;;;;;;;10.52;5.60;;;;;;;-145.79;40.14;76364.22;5278249;28;20040;-74
2023/06/08 12:12:29;;;;;;;7.55;5.75;;;;;;;-145.79;39.75;76368.47;5276677;28;20040;-74
2023/06/08 12:15:00;;;;;;;8.48;5.43;;;;;;;-145.79;40.01;76357.84;5284891;28;20029;-78
2023/06/08 12:17:32;;;;;;;7.70;6.60;;;;;;;-145.79;39.87;76328.19;5268327;28;20369;-79
2023/06/08 12:20:06;;;;;;;9.48;7.35;;;;;;;-145.79;39.88;76343.03;5264259;28;20036;-76
2023/06/08 12:22:38;;;;;;;10.10;8.20;;;;;;;-145.79;39.71;76330.31;5284687;28;20055;-73
2023/06/08 12:25:09;;;;;;;10.40;6.43;;;;;;;-145.79;39.62;76326.06;5283552;28;20028;-74
2023/06/08 12:27:42;;;;;;;8.30;6.53;;;;;;;-145.79;39.50;76307.00;5282716;28;20020;-69
2023/06/08 12:30:13;;;;;;;10.38;6.00;;;;;;;-145.79;38.98;76296.41;5284619;28;20372;-70
2023/06/08 12:32:45;;;;;;;7.00;5.28;;;;;;;-145.79;38.75;76283.69;5283580;28;20025;-69
2023/06/08 12:35:16;;;;;;;6.05;5.45;;;;;;;-145.79;38.98;76258.25;5283095;28;20032;-69
2023/06/08 12:37:50;;;;;;;6.95;5.18;;;;;;;-145.79;38.53;76228.59;5277381;28;20067;-70
2023/06/08 12:40:23;;;;;;;6.18;5.38;;;;;;;-145.79;38.37;76220.13;5263651;28;20029;-69
2023/06/08 12:42:54;;;;;;;9.00;6.15;;;;;;;-145.79;38.05;76186.22;5273896;28;20080;-70
2023/06/08 12:45:25;;;;;;;6.18;5.00;;;;;;;-145.79;37.86;76192.56;5262956;28;20052;-70
2023/06/08 12:47:56;;;;;;;6.05;5.32;;;;;;;-145.79;37.71;76186.22;5263125;28;20037;-70
2023/06/08 12:50:29;;;;;;;8.73;5.05;;;;;;;-145.79;37.61;76169.25;5268591;28;20020;-70
2023/06/08 12:53:01;;;;;;;7.13;5.97;;;;;;;-145.79;37.54;76152.31;5283628;28;20119;-70
2023/06/08 12:55:32;;;;;;;6.72;5.07;;;;;;;-145.79;37.63;76152.31;5272158;28;20104;-70
2023/06/08 12:58:04;;;;;;;7.88;5.88;;;;;;;-145.79;37.39;76139.59;5263388;28;20460;-70
2023/06/08 13:00:35;;;;;;;6.28;5.03;;;;;;;-145.79;36.96;76120.53;5262260;28;20542;-71
2023/06/08 13:03:07;;;;;;;6.30;5.05;;;;;;;-145.79;37.03;76114.19;5263273;28;20053;-70
2023/06/08 13:05:38;;;;;;;7.97;5.30;;;;;;;-145.79;37.11;76099.34;5273307;28;20418;-70
2023/06/08 13:08:09;;;;;;;6.30;4.93;;;;;;;-145.79;37.13;76071.78;5283458;28;20468;-70
2023/06/08 13:10:41;;;;;;;8.80;6.63;;;;;;;-145.79;36.75;76097.22;5283578;28;20179;-70
2023/06/08 13:13:12;;;;;;;7.72;5.22;;;;;;;-145.79;37.13;76054.84;5281192;28;20119;-71
2023/06/08 13:15:45;;;;;;;7.78;6.45;;;;;;;-145.79;37.12;76067.56;5283429;28;20032;-69
2023/06/08 13:18:16;;;;;;;8.93;6.45;;;;;;;-145.79;36.91;76037.88;5281498;28;20055;-71
2023/06/08 13:20:50;;;;;;;8.13;5.57;;;;;;;-145.79;37.04;76037.88;5282507;28;20028;-70
2023/06/08 13:23:24;;;;;;;9.87;6.37;;;;;;;-145.79;36.88;76054.84;5278867;28;20047;-71
2023/06/08 13:25:55;;;;;;;7.05;5.57;;;;;;;-145.79;36.93;76063.31;5271531;28;20351;-70
2023/06/08 13:28:26;;;;;;;6.80;6.18;;;;;;;-145.79;36.77;76023.06;5264530;28;20141;-70
2023/06/08 13:30:58;;;;;;;9.95;6.70;;;;;;;-145.79;36.82;76031.53;5263324;28;20083;-70
2023/06/08 13:33:29;;;;;;;9.32;6.47;;;;;;;-145.79;36.91;76042.13;5278103;28;20032;-70
2023/06/08 13:36:01;;;;;;;8.27;6.35;;;;;;;-145.79;36.82;76033.66;5282372;28;20029;-70
2023/06/08 13:38:32;;;;;;;8.52;6.00;;;;;;;-145.79;37.10;76006.09;5283618;28;20384;-70
2023/06/08 13:41:03;;;;;;;8.25;6.95;;;;;;;-145.79;36.50;75976.44;5282527;28;20116;-67
2023/06/08 13:43:35;;;;;;;6.80;5.90;;;;;;;-145.79;36.57;75984.91;5283385;28;20031;-68
2023/06/08 13:46:06;;;;;;;7.18;6.43;;;;;;;-145.79;36.29;75984.91;5274348;28;20060;-68
2023/06/08 13:48:38;;;;;;;9.85;7.00;;;;;;;-145.79;36.31;75997.63;5266644;28;20032;-67
2023/06/08 13:51:11;;;;;;;7.05;6.38;;;;;;;-145.79;36.32;75963.72;5282951;28;20033;-68
2023/06/08 13:53:42;;;;;;;9.40;6.68;;;;;;;-145.79;36.36;75934.06;5279264;28;20468;-71
2023/06/08 13:56:14;;;;;;;8.52;6.30;;;;;;;-145.79;35.85;75921.34;5265429;28;20021;-71
2023/06/08 13:58:45;;;;;;;8.02;6.25;;;;;;;-145.79;35.85;75902.28;5262332;28;20028;-71
2023/06/08 14:01:17;;;;;;;13.38;12.18;;;;;;;-145.79;35.26;75878.97;5278711;28;20043;-71
2023/06/08 14:03:51;;;;;;;11.02;8.10;;;;;;;-145.79;35.13;75874.75;5276637;28;20017;-72
2023/06/08 14:06:22;;;;;;;17.57;13.53;;;;;;;-145.79;35.07;75876.84;5277895;28;20044;-69
2023/06/08 14:08:54;;;;;;;8.32;7.38;;;;;;;-145.79;35.25;75864.16;5282148;28;20035;-69
2023/06/08 14:11:25;;;;;;;10.95;6.68;;;;;;;-145.79;35.25;75885.34;5281805;28;20024;-69
2023/06/08 14:13:59;;;;;;;14.50;13.05;;;;;;;-145.79;35.10;75906.53;5279934;28;20121;-72
2023/06/08 14:16:31;;;;;;;9.48;8.23;;;;;;;-145.79;35.26;75898.03;5280433;28;20069;-69
2023/06/08 14:19:02;;;;;;;6.90;6.30;;;;;;;-145.79;34.89;75881.09;5282309;28;20028;-69
2023/06/08 14:21:33;;;;;;;7.25;6.55;;;;;;;-145.79;35.23;75870.50;5276779;28;20056;-69
2023/06/08 14:24:05;;;;;;;8.18;6.10;;;;;;;-145.79;35.05;75834.47;5277374;28;20032;-69
2023/06/08 14:26:37;;;;;;;9.43;6.10;;;;;;;-145.79;34.72;75830.25;5282219;28;20013;-69
2023/06/08 14:29:10;;;;;;;10.95;6.35;;;;;;;-145.79;34.74;75849.31;5274130;28;20020;-70
2023/06/08 14:31:42;;;;;;;8.35;6.78;;;;;;;-145.79;34.81;75836.59;5261370;28;20025;-70
2023/06/08 14:34:13;;;;;;;8.38;7.57;;;;;;;-145.79;34.87;75832.34;5276856;28;20142;-70
2023/06/08 14:36:44;;;;;;;7.30;6.60;;;;;;;-145.79;35.00;75815.41;5281780;28;20032;-69
2023/06/08 14:39:16;;;;;;;9.18;7.30;;;;;;;-145.79;34.98;75828.13;5282478;28;20024;-70
2023/06/08 14:41:47;;;;;;;8.57;7.40;;;;;;;-145.79;34.90;75840.84;5282759;28;20111;-70
2023/06/08 14:44:18;;;;;;;12.68;11.48;;;;;;;-145.79;34.81;75851.44;5282413;28;20028;-70
2023/06/08 14:46:50;;;;;;;6.70;6.10;;;;;;;-145.79;34.98;75851.44;5283054;28;20023;-70
2023/06/08 14:49:21;;;;;;;7.95;7.15;;;;;;;-145.79;34.89;75826.00;5283457;28;20112;-72
2023/06/08 14:51:53;;;;;;;7.65;6.63;;;;;;;-145.79;34.56;75855.66;5282376;28;20031;-71
2023/06/08 14:54:24;;;;;;;8.27;7.47;;;;;;;-145.79;34.54;75836.59;5282237;28;20028;-72
2023/06/08 14:56:55;;;;;;;7.72;6.90;;;;;;;-145.79;34.69;75834.47;5283132;28;20452;-72
2023/06/08 14:59:27;;;;;;;9.18;6.93;;;;;;;-145.79;34.67;75838.72;5282424;28;20047;-70
2023/06/08 15:01:58;;;;;;;7.50;6.55;;;;;;;-145.79;34.70;75838.72;5279444;28;20025;-70
2023/06/08 15:04:30;;;;;;;8.88;6.47;;;;;;;-145.79;34.89;75826.00;5284132;28;20035;-71
2023/06/08 15:07:01;;;;;;;7.10;5.70;;;;;;;-145.79;34.82;75826.00;5273486;28;20025;-69
2023/06/08 15:09:32;;;;;;;6.90;6.28;;;;;;;-145.79;34.89;75840.84;5272857;28;20126;-71
2023/06/08 15:12:05;;;;;;;10.25;9.27;;;;;;;-145.79;34.98;75832.34;5277220;28;20102;-71
2023/06/08 15:14:36;;;;;;;8.07;6.82;;;;;;;-145.79;35.34;75838.72;5280868;28;20036;-71
2023/06/08 15:17:08;;;;;;;7.22;6.53;;;;;;;-145.79;35.34;75838.72;5284828;28;20074;-70
2023/06/08 15:19:39;;;;;;;9.38;6.53;;;;;;;-145.79;35.42;75872.63;5303163;28;20016;-71
2023/06/08 15:22:10;;;;;;;7.55;6.35;;;;;;;-145.79;35.61;75898.03;5303426;28;20131;-71
2023/06/08 15:24:42;;;;;;;8.48;7.10;;;;;;;-145.79;35.82;75900.16;5303766;28;20034;-71
2023/06/08 15:27:13;;;;;;;7.63;6.35;;;;;;;-145.79;36.15;75883.22;5279638;28;20742;-69
2023/06/08 15:29:44;;;;;;;7.93;6.45;;;;;;;-145.79;35.93;75868.38;5262025;28;20040;-70
2023/06/08 15:32:17;;;;;;;8.20;6.45;;;;;;;-145.79;36.07;75868.38;5263237;28;20245;-69
2023/06/08 15:34:48;;;;;;;7.35;6.45;;;;;;;-145.79;35.96;75891.69;5266292;28;20051;-69
2023/06/08 15:37:30;;;;;;;7.78;7.05;;;;;;;-145.79;35.84;75874.75;5276348;28;20445;-70
2023/06/08 15:40:02;;;;;;;7.18;6.68;;;;;;;-145.79;36.22;75876.84;5281247;28;20027;-68
2023/06/08 15:42:34;;;;;;;7.15;5.75;;;;;;;-145.79;35.93;75874.75;5278547;28;20036;-67
2023/06/08 15:45:06;;;;;;;7.55;6.28;;;;;;;-145.79;35.94;75893.81;5276273;28;20460;-69
2023/06/08 15:47:38;;;;;;;7.47;6.78;;;;;;;-145.79;36.07;75881.09;5263827;28;20089;-68
2023/06/08 15:50:09;;;;;;;7.35;6.43;;;;;;;-145.79;36.21;75891.69;5274541;28;20116;-70
2023/06/08 15:52:41;;;;;;;7.93;7.22;;;;;;;-145.79;36.36;75889.56;5272492;28;20029;-67
2023/06/08 15:55:12;;;;;;;12.68;7.53;;;;;;;-145.79;36.09;75898.03;5263984;28;20464;-69
2023/06/08 15:57:43;;;;;;;9.13;6.93;;;;;;;-145.79;36.37;75919.22;5272137;28;20027;-69
2023/06/08 16:00:15;;;;;;;8.75;6.70;;;;;;;-145.79;36.50;75895.94;5282172;28;20059;-69
2023/06/08 16:02:47;;;;;;;9.10;8.13;;;;;;;-145.79;36.45;75904.41;5271005;28;20017;-69
2023/06/08 16:05:18;;;;;;;8.95;6.85;;;;;;;-145.79;36.33;75906.53;5267524;28;20491;-69
2023/06/08 16:07:49;;;;;;;8.90;6.47;;;;;;;-145.79;36.26;75898.03;5281012;28;20061;-70
2023/06/08 16:10:21;;;;;;;8.70;6.63;;;;;;;-145.79;36.24;75881.09;5275663;28;20029;-68
2023/06/08 16:12:52;;;;;;;7.97;6.90;;;;;;;-145.79;36.29;75902.28;5285844;28;20067;-69
2023/06/08 16:15:24;;;;;;;10.23;6.88;;;;;;;-145.79;36.38;75889.56;5286352;28;20428;-70
2023/06/08 16:17:56;;;;;;;7.32;6.65;;;;;;;-145.79;36.35;75876.84;5285472;28;20021;-70
2023/06/08 16:20:27;;;;;;;7.20;6.50;;;;;;;-145.79;36.42;75864.16;5284108;28;20602;-70
2023/06/08 16:22:58;;;;;;;7.97;6.75;;;;;;;-145.79;36.27;75864.16;5285198;28;20087;-71
2023/06/08 16:25:30;;;;;;;7.47;6.65;;;;;;;-145.79;36.00;75845.06;5286482;28;20033;-70
2023/06/08 16:28:01;;;;;;;10.00;7.10;;;;;;;-145.79;35.98;75851.44;5282086;28;20025;-72
2023/06/08 16:30:33;;;;;;;7.93;6.95;;;;;;;-145.79;35.93;75859.91;5265039;28;20051;-72
2023/06/08 16:33:04;;;;;;;9.02;7.72;;;;;;;-145.79;36.04;75842.97;5269050;28;20064;-71
2023/06/08 16:35:36;;;;;;;6.90;6.20;;;;;;;-145.79;36.04;75832.34;5269043;28;20091;-71
2023/06/08 16:38:08;;;;;;;9.18;6.63;;;;;;;-145.79;35.79;75836.59;5284691;28;20344;-70
2023/06/08 16:40:39;;;;;;;8.80;6.68;;;;;;;-145.79;35.79;75817.53;5286742;28;20028;-70
2023/06/08 16:43:11;;;;;;;6.50;5.85;;;;;;;-145.79;35.64;75819.66;5285754;28;20032;-71
2023/06/08 16:45:42;;;;;;;8.55;6.07;;;;;;;-145.79;35.73;75813.28;5285281;28;20376;-70
2023/06/08 16:48:13;;;;;;;6.85;6.03;;;;;;;-145.79;35.61;75804.81;5285851;28;20040;-70
2023/06/08 16:50:45;;;;;;;6.97;5.88;;;;;;;-145.79;35.59;75798.47;5271203;28;20103;-71
2023/06/08 16:53:16;;;;;;;7.38;6.28;;;;;;;-145.79;35.62;75798.47;5273343;28;20475;-70
